메인 페이지
METAR-TAF:

METAR-TAF

공항 :

애들레이드 공항

애들레이드, 오스트레일리아

위도: 34-56S, 경도: 138-31E, 고도: 6m

현재 날씨관측

예보는 11분 전, 04:30시(UTC)에 발표되었습니다.
남서16kt
온도 18°C
습도 59%
기압 1028 hPa
시정 10km 이상
고도 3000ft 상공 구름 조금
고도 5600ft 상공 구름 보통

METAR: YPAD 250430Z 23016KT 9999 FEW030 SCT056 18/10 Q1028 RF00.0/000.0

시각: 14:11 (04:41 UTC)

예보

예보는 2 시간 36분 전, 02:05시(UTC)에 발표되었습니다.
예보 대상 시간: 25일 03시부터 26일 06시까지 (UTC)
서남서10kt
시정 10km 이상
고도 4500ft 상공 구름 보통
25일 0400시부터 (UTC)
남서14kt
시정 10km 이상
고도 4500ft 상공 구름 보통
25일 0900시부터 (UTC)
남남동6kt
시정 10km 이상
고도 4000ft 상공 구름 보통
25일 1600시부터 (UTC)
북북동4kt
시정 10km 이상
고도 4000ft 상공 구름 많음
26일 0200시부터 (UTC)
서남서10kt
시정 10km 이상
고도 4000ft 상공 구름 많음

TAF: YPAD 250205Z 2503/2606 25010KT 9999 SCT045 FM250400 22014KT 9999 SCT045 FM250900 15006KT 9999 SCT040 FM251600 03004KT 9999 BKN040 FM260200 24010KT 9999 BKN040

4,000개 이상의 공항 관측 자료 및 예보 (METAR 및 TAF 보고).

지도상에서 검색 가능한 기상관측소가 노란 점과 빨간 점으로 표시되어 있습니다.

기상관측소 명을 보려면 표시 위로 마우스를 이동하세요.

날씨 관측과 예보를 보려면 클릭하세요.

지도 변경 : 확대하려면 엑스 표시가 있는 녹색 버튼, 축소하려면 빼기 표시가 있는 녹색 버튼, 다음 페이지의 지도를 보려면 녹색 화살표를 클릭하세요.


METAR-TAF: